createdAt,value
2022-10-11T00:02:04.391Z,10.32
2022-10-11T00:04:30.902Z,10.68
2022-10-11T00:06:57.439Z,12.02
2022-10-11T00:09:24.156Z,10.82
2022-10-11T00:11:50.742Z,10.38
2022-10-11T00:14:17.307Z,9.60
2022-10-11T00:16:44.583Z,11.23
2022-10-11T00:19:11.531Z,9.40
2022-10-11T00:21:38.105Z,10.38
2022-10-11T00:24:05.118Z,9.20
2022-10-11T00:26:31.666Z,8.63
2022-10-11T00:28:58.298Z,9.05
2022-10-11T00:31:25.129Z,10.25
2022-10-11T00:33:53.947Z,11.15
2022-10-11T00:36:21.162Z,8.65
2022-10-11T00:38:47.851Z,9.63
2022-10-11T00:41:15.799Z,10.32
2022-10-11T00:43:42.464Z,9.18
2022-10-11T00:46:18.193Z,9.38
2022-10-11T00:48:50.735Z,10.18
2022-10-11T00:51:34.222Z,9.40
2022-10-11T00:54:02.156Z,9.55
2022-10-11T00:56:36.038Z,10.73
2022-10-11T00:59:06.164Z,12.07
2022-10-11T01:01:33.025Z,11.88
2022-10-11T01:04:00.588Z,9.88
2022-10-11T01:06:27.360Z,11.43
2022-10-11T01:08:56.704Z,9.80
2022-10-11T01:11:27.125Z,11.27
2022-10-11T01:14:10.886Z,11.57
2022-10-11T01:17:01.585Z,11.32
2022-10-11T01:19:40.255Z,11.68
2022-10-11T01:22:43.620Z,11.13
2022-10-11T01:25:41.077Z,11.95
2022-10-11T01:28:16.491Z,12.82
2022-10-11T01:30:43.896Z,11.68
2022-10-11T01:33:22.183Z,12.63
2022-10-11T01:36:13.814Z,10.75
2022-10-11T01:38:50.119Z,12.23
2022-10-11T01:41:21.499Z,13.18
2022-10-11T01:43:51.924Z,11.50
2022-10-11T01:46:19.996Z,10.75
2022-10-11T01:48:55.561Z,9.70
2022-10-11T01:51:25.678Z,11.82
2022-10-11T01:54:05.139Z,9.43
2022-10-11T01:56:34.435Z,9.95
2022-10-11T01:59:30.252Z,12.02
2022-10-11T02:02:18.458Z,8.70
2022-10-11T02:04:52.818Z,10.57
2022-10-11T02:07:26.417Z,10.65
2022-10-11T02:12:41.472Z,9.73
2022-10-11T02:15:09.800Z,9.52
2022-10-11T02:17:41.260Z,10.43
2022-10-11T02:20:14.345Z,10.45
2022-10-11T02:22:45.192Z,10.82
2022-10-11T02:25:17.808Z,10.73
2022-10-11T02:27:47.119Z,10.88
2022-10-11T02:30:15.186Z,10.85
2022-10-11T02:32:44.512Z,9.98
2022-10-11T02:35:12.003Z,12.02
2022-10-11T02:37:44.475Z,9.88
2022-10-11T02:40:35.667Z,10.02
2022-10-11T02:43:07.939Z,11.32
2022-10-11T02:45:37.223Z,12.38
2022-10-11T02:48:05.311Z,11.73
2022-10-11T02:50:34.563Z,11.77
2022-10-11T02:53:01.163Z,12.35
2022-10-11T02:55:27.755Z,12.32
2022-10-11T02:57:54.279Z,10.52
2022-10-11T03:00:20.907Z,10.52
2022-10-11T03:02:47.555Z,9.30
2022-10-11T03:05:14.167Z,9.77
2022-10-11T03:07:40.801Z,9.90
2022-10-11T03:10:08.272Z,9.82
2022-10-11T03:12:34.889Z,11.05
2022-10-11T03:15:01.647Z,11.07
2022-10-11T03:17:36.582Z,10.88
2022-10-11T03:20:05.459Z,10.35
2022-10-11T03:22:32.236Z,10.30
2022-10-11T03:25:03.649Z,11.07
2022-10-11T03:27:31.219Z,8.98
2022-10-11T03:29:57.881Z,10.55
2022-10-11T03:32:25.130Z,10.95
2022-10-11T03:34:51.709Z,11.25
2022-10-11T03:37:18.929Z,11.30
2022-10-11T03:39:45.907Z,9.95
2022-10-11T03:42:13.708Z,10.77
2022-10-11T03:44:42.055Z,11.32
2022-10-11T03:47:09.329Z,11.27
2022-10-11T03:49:39.892Z,10.73
2022-10-11T03:52:09.215Z,9.70
2022-10-11T03:54:35.739Z,9.95
2022-10-11T03:57:02.339Z,9.93
2022-10-11T03:59:28.953Z,8.88
2022-10-11T04:01:55.578Z,9.85
2022-10-11T04:04:22.190Z,9.57
2022-10-11T04:06:48.730Z,11.20
2022-10-11T04:09:15.419Z,9.45
2022-10-11T04:11:41.977Z,9.85
2022-10-11T04:14:08.523Z,8.80
2022-10-11T04:16:35.374Z,10.60
2022-10-11T04:19:01.907Z,10.38
2022-10-11T04:21:30.709Z,9.27
2022-10-11T04:23:57.242Z,10.10
2022-10-11T04:26:23.811Z,9.27
2022-10-11T04:28:50.430Z,10.05
2022-10-11T04:31:17.068Z,10.02
2022-10-11T04:33:43.601Z,11.23
2022-10-11T04:36:10.423Z,11.43
2022-10-11T04:38:36.921Z,9.90
2022-10-11T04:41:14.902Z,10.18
2022-10-11T04:43:41.795Z,10.75
2022-10-11T04:46:09.779Z,10.55
2022-10-11T04:48:36.955Z,9.38
2022-10-11T04:51:03.787Z,10.73
2022-10-11T04:53:30.323Z,10.52
2022-10-11T04:56:02.398Z,10.50
2022-10-11T04:58:30.496Z,10.38
2022-10-11T05:00:57.471Z,9.43
2022-10-11T05:03:24.586Z,10.57
2022-10-11T05:05:51.257Z,10.45
2022-10-11T05:08:17.833Z,11.90
2022-10-11T05:10:55.086Z,11.80
2022-10-11T05:13:21.784Z,11.65
2022-10-11T05:15:48.754Z,10.40
2022-10-11T05:18:15.354Z,9.57
2022-10-11T05:20:41.866Z,9.80
2022-10-11T05:23:08.584Z,8.68
2022-10-11T05:25:35.357Z,9.93
2022-10-11T05:28:01.920Z,12.10
2022-10-11T05:30:28.476Z,11.05
2022-10-11T05:32:55.091Z,10.27
2022-10-11T05:35:21.689Z,11.35
2022-10-11T05:37:48.213Z,11.45
2022-10-11T05:40:14.779Z,12.88
2022-10-11T05:42:41.361Z,10.82
2022-10-11T05:45:08.272Z,10.52
2022-10-11T05:47:34.797Z,10.98
2022-10-11T05:50:01.374Z,11.07
2022-10-11T05:52:28.376Z,11.00
2022-10-11T05:54:54.997Z,11.32
2022-10-11T05:57:21.577Z,10.20
2022-10-11T05:59:48.113Z,11.10
2022-10-11T06:02:14.647Z,10.45
2022-10-11T06:04:41.214Z,14.27
2022-10-11T06:07:07.801Z,12.60
2022-10-11T06:09:34.935Z,12.70
2022-10-11T06:12:01.683Z,15.50
2022-10-11T06:14:28.304Z,14.68
2022-10-11T06:16:54.924Z,12.48
2022-10-11T06:19:21.545Z,14.57
2022-10-11T06:21:48.476Z,12.20
2022-10-11T06:24:15.684Z,12.73
2022-10-11T06:26:42.231Z,12.13
2022-10-11T06:29:09.514Z,11.52
2022-10-11T06:31:36.076Z,11.32
2022-10-11T06:34:02.630Z,11.43
2022-10-11T06:36:31.985Z,11.85
2022-10-11T06:39:01.361Z,10.70
2022-10-11T06:41:29.567Z,11.13
2022-10-11T06:43:57.326Z,10.60
2022-10-11T06:46:26.612Z,10.13
2022-10-11T06:48:54.126Z,10.55
2022-10-11T06:51:24.325Z,11.30
2022-10-11T06:53:55.849Z,9.10
2022-10-11T06:56:22.643Z,9.57
2022-10-11T06:58:51.016Z,8.30
2022-10-11T07:01:20.017Z,8.98
2022-10-11T07:03:47.604Z,9.60
2022-10-11T07:06:17.248Z,9.57
2022-10-11T07:08:44.056Z,10.00
2022-10-11T07:11:13.098Z,10.07
2022-10-11T07:13:40.147Z,9.30
2022-10-11T07:16:10.475Z,9.27
2022-10-11T07:18:37.954Z,10.63
2022-10-11T07:21:07.131Z,10.30
2022-10-11T07:23:33.761Z,11.57
2022-10-11T07:26:00.461Z,10.98
2022-10-11T07:28:28.761Z,11.35
2022-10-11T07:30:55.444Z,11.13
2022-10-11T07:33:22.048Z,12.35
2022-10-11T07:35:49.595Z,12.93
2022-10-11T07:38:17.118Z,11.73
2022-10-11T07:40:45.889Z,12.80
2022-10-11T07:43:13.391Z,14.15
2022-10-11T07:45:45.501Z,14.65
2022-10-11T07:48:12.041Z,13.15
2022-10-11T07:50:38.706Z,12.55
2022-10-11T07:53:05.243Z,13.10
2022-10-11T07:55:40.100Z,13.80
2022-10-11T07:58:11.934Z,13.90
2022-10-11T08:00:40.085Z,12.30
2022-10-11T08:03:06.911Z,13.05
2022-10-11T08:05:34.231Z,12.57
2022-10-11T08:08:00.750Z,12.68
2022-10-11T08:10:27.717Z,12.30
2022-10-11T08:12:54.270Z,11.90
2022-10-11T08:15:21.191Z,12.45
2022-10-11T08:17:47.958Z,12.60
2022-10-11T08:20:14.609Z,11.65
2022-10-11T08:22:41.139Z,11.43
2022-10-11T08:25:08.081Z,12.40
2022-10-11T08:27:34.644Z,11.60
2022-10-11T08:30:01.275Z,11.65
2022-10-11T08:32:29.320Z,11.30
2022-10-11T08:34:56.815Z,10.82
2022-10-11T08:37:23.383Z,11.70
2022-10-11T08:39:50.122Z,12.15
2022-10-11T08:42:35.959Z,11.30
2022-10-11T08:45:16.853Z,10.43
2022-10-11T08:47:45.158Z,10.60
2022-10-11T08:50:19.816Z,10.02
2022-10-11T08:53:10.975Z,9.80
2022-10-11T08:55:40.245Z,9.15
2022-10-11T08:58:06.928Z,9.73
2022-10-11T09:00:38.200Z,9.98
2022-10-11T09:03:33.894Z,10.43
2022-10-11T09:06:16.257Z,9.23
2022-10-11T09:09:13.460Z,9.98
2022-10-11T09:11:48.741Z,9.43
2022-10-11T09:14:34.123Z,10.65
2022-10-11T09:17:08.450Z,9.48
2022-10-11T09:19:41.076Z,10.05
2022-10-11T09:22:30.882Z,9.53
2022-10-11T09:25:03.861Z,9.45
2022-10-11T09:28:01.729Z,9.05
2022-10-11T09:30:27.958Z,7.82
2022-10-11T09:33:17.279Z,8.82
2022-10-11T09:35:51.706Z,7.68
2022-10-11T09:38:27.968Z,7.13
2022-10-11T09:41:06.148Z,7.05
2022-10-11T09:43:32.834Z,7.78
2022-10-11T09:45:59.376Z,7.38
2022-10-11T09:48:37.504Z,7.40
2022-10-11T09:51:16.544Z,7.05
2022-10-11T09:53:52.543Z,8.05
2022-10-11T09:56:19.308Z,7.57
2022-10-11T09:58:46.178Z,7.63
2022-10-11T10:01:23.130Z,8.13
2022-10-11T10:04:05.300Z,7.22
2022-10-11T10:06:31.912Z,7.85
2022-10-11T10:09:27.955Z,7.80
2022-10-11T10:11:55.972Z,8.35
2022-10-11T10:14:28.927Z,8.20
2022-10-11T10:17:08.612Z,9.30
2022-10-11T10:19:51.836Z,9.23
2022-10-11T10:22:25.512Z,8.70
2022-10-11T10:24:52.920Z,8.82
2022-10-11T10:27:30.563Z,9.13
2022-10-11T10:30:09.175Z,8.95
2022-10-11T10:32:57.260Z,8.68
2022-10-11T10:35:41.253Z,9.45
2022-10-11T10:38:27.931Z,8.93
2022-10-11T10:41:11.293Z,8.75
2022-10-11T10:43:39.952Z,9.20
2022-10-11T10:46:48.528Z,8.90
2022-10-11T10:49:55.088Z,9.27
2022-10-11T10:52:40.400Z,9.00
2022-10-11T10:55:25.649Z,8.10
2022-10-11T10:58:07.208Z,7.55
2022-10-11T11:00:45.549Z,7.55
2022-10-11T11:03:27.902Z,7.45
2022-10-11T11:06:34.149Z,7.15
2022-10-11T11:09:21.426Z,7.13
2022-10-11T11:12:00.606Z,7.20
2022-10-11T11:15:15.051Z,7.28
2022-10-11T11:17:58.984Z,7.00
2022-10-11T11:20:40.630Z,6.60
2022-10-11T11:23:23.668Z,8.85
2022-10-11T11:26:04.875Z,9.05
2022-10-11T11:28:42.029Z,9.10
2022-10-11T11:31:11.719Z,9.63
2022-10-11T11:33:48.934Z,9.07
2022-10-11T11:36:23.471Z,9.60
2022-10-11T11:38:58.345Z,9.60
2022-10-11T11:41:34.590Z,8.93
2022-10-11T11:44:06.892Z,8.25
2022-10-11T11:46:50.967Z,9.00
2022-10-11T11:49:23.616Z,8.90
2022-10-11T11:51:51.701Z,8.57
2022-10-11T11:54:32.633Z,9.00
2022-10-11T11:57:23.666Z,8.55
2022-10-11T12:00:13.896Z,8.88
2022-10-11T12:03:01.803Z,8.95
2022-10-11T12:05:33.934Z,8.80
2022-10-11T12:08:04.417Z,8.40
2022-10-11T12:10:36.258Z,9.02
2022-10-11T12:13:15.263Z,8.57
2022-10-11T12:15:56.139Z,8.85
2022-10-11T12:18:22.950Z,8.60
2022-10-11T12:21:06.124Z,8.02
2022-10-11T12:23:42.975Z,7.88
2022-10-11T12:26:27.773Z,8.65
2022-10-11T12:29:18.680Z,9.20
2022-10-11T12:32:30.823Z,6.57
2022-10-11T12:35:37.838Z,5.55
2022-10-11T12:38:33.956Z,5.50
2022-10-11T12:41:06.460Z,5.47
2022-10-11T12:43:36.312Z,5.93
2022-10-11T12:46:27.985Z,5.78
2022-10-11T12:49:27.060Z,5.70
2022-10-11T12:52:04.468Z,5.82
2022-10-11T12:55:10.316Z,5.57
2022-10-11T12:57:55.246Z,5.68
2022-10-11T13:00:41.594Z,5.65
2022-10-11T13:03:32.775Z,5.50
2022-10-11T13:06:01.844Z,5.30
2022-10-11T13:08:37.046Z,4.97
2022-10-11T13:11:10.224Z,4.90
2022-10-11T13:13:43.908Z,5.00
2022-10-11T13:16:18.550Z,5.40
2022-10-11T13:18:48.388Z,5.05
2022-10-11T13:21:24.137Z,4.90
2022-10-11T13:23:55.616Z,4.60
2022-10-11T13:26:24.523Z,4.65
2022-10-11T13:28:51.259Z,4.95
2022-10-11T13:31:17.951Z,4.82
2022-10-11T13:33:45.818Z,4.97
2022-10-11T13:36:17.627Z,4.68
2022-10-11T13:38:53.799Z,4.97
2022-10-11T13:41:21.658Z,4.63
2022-10-11T13:43:48.806Z,4.88
2022-10-11T13:46:21.838Z,5.07
2022-10-11T13:48:59.621Z,5.47
2022-10-11T13:51:32.460Z,4.60
2022-10-11T13:54:10.565Z,4.43
2022-10-11T13:56:47.787Z,4.70
2022-10-11T13:59:20.170Z,5.03
2022-10-11T14:01:47.647Z,4.85
2022-10-11T14:04:17.143Z,5.25
2022-10-11T14:07:02.558Z,6.00
2022-10-11T14:09:32.194Z,5.60
2022-10-11T14:12:39.651Z,6.10
2022-10-11T14:15:35.676Z,6.68
2022-10-11T14:18:31.726Z,6.97
2022-10-11T14:20:58.434Z,6.50
2022-10-11T14:23:25.595Z,6.82
2022-10-11T14:25:53.474Z,6.60
2022-10-11T14:28:20.115Z,6.80
2022-10-11T14:30:49.448Z,6.85
2022-10-11T14:33:16.035Z,6.47
2022-10-11T14:35:43.331Z,6.30
2022-10-11T14:38:11.859Z,5.70
2022-10-11T14:40:38.441Z,5.57
2022-10-11T14:43:04.962Z,5.55
2022-10-11T14:45:31.507Z,5.38
2022-10-11T14:47:58.199Z,5.22
2022-10-11T14:50:30.748Z,6.25
2022-10-11T14:52:57.445Z,6.13
2022-10-11T14:55:24.646Z,6.25
2022-10-11T14:57:51.494Z,5.95
2022-10-11T15:00:22.955Z,5.88
2022-10-11T15:02:50.771Z,5.75
2022-10-11T15:05:17.546Z,5.40
2022-10-11T15:07:44.097Z,5.68
2022-10-11T15:10:26.622Z,5.60
2022-10-11T15:12:54.801Z,5.65
2022-10-11T15:15:24.495Z,6.18
2022-10-11T15:17:55.484Z,5.50
2022-10-11T15:20:30.210Z,6.05
2022-10-11T15:22:57.844Z,5.60
2022-10-11T15:25:25.177Z,4.95
2022-10-11T15:27:52.145Z,5.68
2022-10-11T15:30:22.815Z,5.65
2022-10-11T15:32:50.075Z,5.70
2022-10-11T15:35:17.864Z,5.63
2022-10-11T15:37:45.154Z,5.72
2022-10-11T15:40:20.592Z,5.78
2022-10-11T15:42:48.213Z,5.82
2022-10-11T15:45:15.874Z,5.55
2022-10-11T15:47:42.753Z,6.30
2022-10-11T15:50:34.875Z,5.80
2022-10-11T15:53:07.675Z,6.47
2022-10-11T15:55:38.620Z,7.43
2022-10-11T15:58:06.097Z,8.23
2022-10-11T16:00:32.822Z,8.40
2022-10-11T16:02:59.901Z,8.57
2022-10-11T16:05:28.298Z,8.20
2022-10-11T16:07:55.139Z,9.20
2022-10-11T16:10:22.168Z,9.15
2022-10-11T16:12:49.069Z,9.10
2022-10-11T16:15:15.999Z,9.05
2022-10-11T16:17:42.551Z,9.18
2022-10-11T16:20:09.480Z,9.18
2022-10-11T16:22:36.561Z,9.35
2022-10-11T16:25:04.564Z,8.93
2022-10-11T16:27:32.266Z,9.27
2022-10-11T16:30:00.028Z,9.05
2022-10-11T16:32:28.061Z,9.93
2022-10-11T16:34:54.760Z,10.00
2022-10-11T16:37:21.283Z,10.50
2022-10-11T16:39:48.010Z,11.00
2022-10-11T16:42:14.652Z,12.65
2022-10-11T16:44:41.194Z,10.98
2022-10-11T16:47:07.844Z,12.27
2022-10-11T16:49:34.696Z,12.05
2022-10-11T16:52:03.839Z,11.40
2022-10-11T16:54:31.730Z,11.30
2022-10-11T16:57:00.556Z,11.13
2022-10-11T16:59:27.644Z,10.82
2022-10-11T17:01:55.112Z,11.13
2022-10-11T17:04:22.375Z,12.93
2022-10-11T17:06:49.698Z,12.57
2022-10-11T17:09:16.348Z,21.67
2022-10-11T17:11:43.606Z,24.33
2022-10-11T17:14:11.760Z,20.10
2022-10-11T17:16:38.582Z,14.70
2022-10-11T17:19:05.309Z,13.98
2022-10-11T17:21:32.003Z,11.65
2022-10-11T17:23:58.659Z,13.27
2022-10-11T17:26:26.586Z,15.90
2022-10-11T17:28:58.083Z,14.85
2022-10-11T17:31:25.344Z,14.25
2022-10-11T17:33:53.215Z,13.30
2022-10-11T17:36:24.083Z,14.80
2022-10-11T17:38:52.064Z,14.68
2022-10-11T17:41:19.453Z,15.88
2022-10-11T17:43:46.811Z,16.77
2022-10-11T17:46:15.756Z,20.17
2022-10-11T17:48:42.525Z,25.17
2022-10-11T17:51:12.253Z,21.00
2022-10-11T17:53:39.242Z,18.83
2022-10-11T17:56:10.887Z,15.93
2022-10-11T17:58:38.543Z,16.83
2022-10-11T18:01:08.467Z,15.95
2022-10-11T18:03:35.368Z,16.48
2022-10-11T18:06:04.204Z,15.43
2022-10-11T18:08:30.717Z,17.73
2022-10-11T18:10:57.589Z,19.42
2022-10-11T18:13:24.244Z,15.27
2022-10-11T18:16:04.686Z,17.40
2022-10-11T18:18:31.251Z,15.93
2022-10-11T18:20:57.929Z,16.02
2022-10-11T18:23:24.479Z,14.75
2022-10-11T18:25:51.052Z,15.50
2022-10-11T18:28:17.950Z,15.60
2022-10-11T18:30:46.536Z,15.07
2022-10-11T18:33:14.459Z,14.30
2022-10-11T18:35:41.223Z,14.73
2022-10-11T18:38:08.716Z,13.80
2022-10-11T18:40:43.426Z,14.98
2022-10-11T18:43:12.801Z,14.27
2022-10-11T18:45:39.351Z,13.98
2022-10-11T18:48:06.143Z,16.40
2022-10-11T18:50:35.432Z,14.52
2022-10-11T18:53:02.197Z,14.38
2022-10-11T18:55:28.852Z,16.23
2022-10-11T18:57:55.415Z,16.20
2022-10-11T19:00:41.886Z,19.13
2022-10-11T19:03:08.504Z,18.17
2022-10-11T19:05:39.351Z,17.65
2022-10-11T19:08:06.041Z,17.20
2022-10-11T19:10:34.028Z,19.52
2022-10-11T19:13:00.577Z,16.88
2022-10-11T19:15:28.957Z,14.70
2022-10-11T19:17:55.865Z,15.48
2022-10-11T19:20:22.498Z,13.55
2022-10-11T19:22:49.070Z,14.77
2022-10-11T19:25:15.724Z,13.30
2022-10-11T19:27:42.463Z,13.10
2022-10-11T19:30:10.868Z,13.25
2022-10-11T19:32:37.353Z,13.00
2022-10-11T19:35:04.349Z,13.02
2022-10-11T19:37:31.185Z,13.52
2022-10-11T19:39:58.008Z,14.20
2022-10-11T19:42:24.628Z,14.38
2022-10-11T19:44:51.177Z,16.27
2022-10-11T19:47:17.730Z,15.32
2022-10-11T19:49:44.290Z,14.38
2022-10-11T19:52:13.223Z,14.05
2022-10-11T19:54:39.988Z,14.52
2022-10-11T19:57:08.725Z,13.63
2022-10-11T19:59:35.295Z,14.68
2022-10-11T20:02:01.864Z,13.57
2022-10-11T20:07:14.994Z,13.70
2022-10-11T20:09:41.568Z,13.98
2022-10-11T20:12:08.538Z,14.18
2022-10-11T20:14:35.242Z,14.70
2022-10-11T20:17:01.759Z,14.77
2022-10-11T20:19:31.307Z,14.35
2022-10-11T20:21:58.955Z,14.32
2022-10-11T20:24:27.557Z,13.63
2022-10-11T20:26:54.943Z,14.02
2022-10-11T20:29:24.146Z,13.82
2022-10-11T20:31:51.087Z,14.52
2022-10-11T20:34:17.622Z,15.07
2022-10-11T20:36:48.897Z,13.60
2022-10-11T20:39:16.106Z,14.82
2022-10-11T20:41:43.711Z,16.48
2022-10-11T20:44:12.409Z,16.38
2022-10-11T20:46:39.395Z,15.75
2022-10-11T20:49:11.315Z,15.80
2022-10-11T20:51:41.478Z,17.63
2022-10-11T20:54:08.827Z,17.20
2022-10-11T20:56:37.043Z,17.08
2022-10-11T20:59:03.890Z,18.13
2022-10-11T21:01:37.250Z,17.13
2022-10-11T21:04:04.693Z,17.25
2022-10-11T21:06:32.860Z,16.73
2022-10-11T21:09:00.063Z,14.43
2022-10-11T21:11:33.592Z,16.52
2022-10-11T21:16:28.261Z,17.13
2022-10-11T21:18:56.463Z,14.98
2022-10-11T21:21:24.040Z,16.92
2022-10-11T21:23:54.419Z,15.52
2022-10-11T21:26:22.055Z,17.17
2022-10-11T21:28:48.691Z,15.98
2022-10-11T21:31:18.215Z,15.20
2022-10-11T21:33:45.059Z,16.58
2022-10-11T21:36:17.589Z,17.30
2022-10-11T21:38:44.145Z,16.60
2022-10-11T21:41:21.704Z,17.40
2022-10-11T21:43:48.817Z,17.25
2022-10-11T21:46:41.695Z,16.58
2022-10-11T21:49:12.407Z,15.35
2022-10-11T21:51:39.043Z,18.30
2022-10-11T21:54:05.790Z,14.95
2022-10-11T21:56:32.409Z,18.10
2022-10-11T21:58:58.986Z,16.15
2022-10-11T22:01:25.669Z,17.65
2022-10-11T22:03:55.124Z,17.20
2022-10-11T22:06:22.318Z,16.88
2022-10-11T22:08:50.077Z,16.70
2022-10-11T22:11:17.522Z,17.30
2022-10-11T22:13:44.139Z,16.33
2022-10-11T22:16:12.511Z,19.65
2022-10-11T22:18:39.878Z,19.65
2022-10-11T22:21:09.722Z,18.52
2022-10-11T22:23:36.619Z,18.98
2022-10-11T22:26:08.884Z,18.15
2022-10-11T22:28:36.343Z,19.42
2022-10-11T22:31:04.973Z,18.20
2022-10-11T22:33:31.702Z,17.85
2022-10-11T22:36:00.564Z,19.00
2022-10-11T22:38:27.865Z,16.40
2022-10-11T22:40:54.832Z,18.33
2022-10-11T22:43:21.400Z,17.60
2022-10-11T22:45:48.024Z,17.90
2022-10-11T22:48:14.672Z,20.13
2022-10-11T22:50:41.531Z,17.75
2022-10-11T22:53:08.973Z,17.27
2022-10-11T22:55:35.586Z,18.02
2022-10-11T22:58:02.112Z,16.67
2022-10-11T23:00:28.702Z,19.92
2022-10-11T23:02:55.290Z,17.95
2022-10-11T23:05:22.137Z,18.30
2022-10-11T23:07:49.314Z,17.90
2022-10-11T23:10:16.754Z,19.67
2022-10-11T23:12:43.602Z,20.30
2022-10-11T23:15:11.230Z,17.95
2022-10-11T23:17:38.234Z,18.05
2022-10-11T23:20:05.875Z,19.13
2022-10-11T23:22:32.517Z,18.95
2022-10-11T23:24:59.023Z,19.10
2022-10-11T23:27:25.539Z,17.60
2022-10-11T23:29:52.046Z,21.35
2022-10-11T23:32:18.597Z,19.52
2022-10-11T23:34:45.732Z,19.85
2022-10-11T23:37:12.267Z,18.58
2022-10-11T23:39:38.795Z,18.85
2022-10-11T23:42:05.452Z,18.58
2022-10-11T23:44:32.021Z,18.98
2022-10-11T23:46:58.520Z,22.95
2022-10-11T23:49:25.155Z,22.73
2022-10-11T23:51:51.697Z,22.45
2022-10-11T23:54:18.223Z,23.27
2022-10-11T23:56:44.775Z,20.27
2022-10-11T23:59:11.311Z,21.27
